sensor_id;sensor_type;location;lat;lon;timestamp;P1;durP1;ratioP1;P2;durP2;ratioP2
21546;SDS011;41275;51.912;4.388;2023-02-24T00:00:05;11.93;;;2.38;;
21546;SDS011;41275;51.912;4.388;2023-02-24T00:06:06;10.93;;;2.43;;
21546;SDS011;41275;51.912;4.388;2023-02-24T00:11:31;10.77;;;2.75;;
21546;SDS011;41275;51.912;4.388;2023-02-24T00:16:53;10.60;;;2.25;;
21546;SDS011;41275;51.912;4.388;2023-02-24T00:22:14;9.10;;;2.10;;
21546;SDS011;41275;51.912;4.388;2023-02-24T00:27:35;10.53;;;2.60;;
21546;SDS011;41275;51.912;4.388;2023-02-24T00:32:56;13.13;;;2.43;;
21546;SDS011;41275;51.912;4.388;2023-02-24T00:38:20;9.65;;;2.58;;
21546;SDS011;41275;51.912;4.388;2023-02-24T00:43:45;9.77;;;2.25;;
21546;SDS011;41275;51.912;4.388;2023-02-24T00:49:08;12.40;;;1.90;;
21546;SDS011;41275;51.912;4.388;2023-02-24T00:54:35;9.40;;;1.90;;
21546;SDS011;41275;51.912;4.388;2023-02-24T00:59:56;7.72;;;1.60;;
21546;SDS011;41275;51.912;4.388;2023-02-24T01:05:18;13.50;;;2.35;;
21546;SDS011;41275;51.912;4.388;2023-02-24T01:10:40;8.50;;;1.63;;
21546;SDS011;41275;51.912;4.388;2023-02-24T01:16:21;6.97;;;1.50;;
21546;SDS011;41275;51.912;4.388;2023-02-24T01:21:42;6.95;;;1.65;;
21546;SDS011;41275;51.912;4.388;2023-02-24T01:27:04;8.10;;;1.90;;
21546;SDS011;41275;51.912;4.388;2023-02-24T01:32:26;12.95;;;1.63;;
21546;SDS011;41275;51.912;4.388;2023-02-24T01:37:48;10.88;;;1.60;;
21546;SDS011;41275;51.912;4.388;2023-02-24T01:43:09;8.38;;;1.45;;
21546;SDS011;41275;51.912;4.388;2023-02-24T01:48:31;8.60;;;1.60;;
21546;SDS011;41275;51.912;4.388;2023-02-24T01:53:52;7.10;;;1.67;;
21546;SDS011;41275;51.912;4.388;2023-02-24T01:59:14;8.52;;;1.65;;
21546;SDS011;41275;51.912;4.388;2023-02-24T02:04:39;6.10;;;1.33;;
21546;SDS011;41275;51.912;4.388;2023-02-24T02:10:10;6.57;;;1.30;;
21546;SDS011;41275;51.912;4.388;2023-02-24T02:15:34;8.05;;;1.50;;
21546;SDS011;41275;51.912;4.388;2023-02-24T02:21:24;7.07;;;1.33;;
21546;SDS011;41275;51.912;4.388;2023-02-24T02:27:08;6.30;;;1.15;;
21546;SDS011;41275;51.912;4.388;2023-02-24T02:39:11;7.28;;;1.33;;
21546;SDS011;41275;51.912;4.388;2023-02-24T02:44:51;9.63;;;1.42;;
21546;SDS011;41275;51.912;4.388;2023-02-24T02:50:37;4.78;;;1.10;;
21546;SDS011;41275;51.912;4.388;2023-02-24T03:01:36;6.13;;;1.00;;
21546;SDS011;41275;51.912;4.388;2023-02-24T03:07:01;7.07;;;1.23;;
21546;SDS011;41275;51.912;4.388;2023-02-24T03:12:24;9.67;;;1.53;;
21546;SDS011;41275;51.912;4.388;2023-02-24T03:17:58;8.98;;;1.30;;
21546;SDS011;41275;51.912;4.388;2023-02-24T03:23:29;11.07;;;1.23;;
21546;SDS011;41275;51.912;4.388;2023-02-24T03:39:59;6.65;;;1.08;;
21546;SDS011;41275;51.912;4.388;2023-02-24T03:45:33;6.55;;;1.13;;
21546;SDS011;41275;51.912;4.388;2023-02-24T03:50:57;5.63;;;1.00;;
21546;SDS011;41275;51.912;4.388;2023-02-24T04:02:04;5.47;;;0.90;;
21546;SDS011;41275;51.912;4.388;2023-02-24T04:07:36;4.87;;;0.90;;
21546;SDS011;41275;51.912;4.388;2023-02-24T04:13:17;5.00;;;0.90;;
21546;SDS011;41275;51.912;4.388;2023-02-24T04:18:39;5.50;;;0.82;;
21546;SDS011;41275;51.912;4.388;2023-02-24T04:24:01;6.05;;;1.10;;
21546;SDS011;41275;51.912;4.388;2023-02-24T04:29:29;4.13;;;0.80;;
21546;SDS011;41275;51.912;4.388;2023-02-24T04:35:03;5.33;;;0.80;;
21546;SDS011;41275;51.912;4.388;2023-02-24T04:40:27;7.88;;;1.17;;
21546;SDS011;41275;51.912;4.388;2023-02-24T04:45:48;9.98;;;1.02;;
21546;SDS011;41275;51.912;4.388;2023-02-24T04:51:11;7.47;;;0.93;;
21546;SDS011;41275;51.912;4.388;2023-02-24T04:56:34;6.85;;;1.00;;
21546;SDS011;41275;51.912;4.388;2023-02-24T05:01:56;3.23;;;0.77;;
21546;SDS011;41275;51.912;4.388;2023-02-24T05:07:21;4.30;;;0.87;;
21546;SDS011;41275;51.912;4.388;2023-02-24T05:12:42;5.67;;;1.10;;
21546;SDS011;41275;51.912;4.388;2023-02-24T05:18:04;4.82;;;1.00;;
21546;SDS011;41275;51.912;4.388;2023-02-24T05:23:28;5.45;;;1.05;;
21546;SDS011;41275;51.912;4.388;2023-02-24T05:28:54;9.87;;;1.40;;
21546;SDS011;41275;51.912;4.388;2023-02-24T05:34:16;5.25;;;0.90;;
21546;SDS011;41275;51.912;4.388;2023-02-24T05:39:37;5.95;;;1.20;;
21546;SDS011;41275;51.912;4.388;2023-02-24T05:44:58;6.97;;;1.27;;
21546;SDS011;41275;51.912;4.388;2023-02-24T05:50:19;7.10;;;1.40;;
21546;SDS011;41275;51.912;4.388;2023-02-24T05:55:46;5.47;;;1.27;;
21546;SDS011;41275;51.912;4.388;2023-02-24T06:01:10;8.00;;;1.57;;
21546;SDS011;41275;51.912;4.388;2023-02-24T06:06:37;5.13;;;1.20;;
21546;SDS011;41275;51.912;4.388;2023-02-24T06:12:02;6.83;;;1.70;;
21546;SDS011;41275;51.912;4.388;2023-02-24T06:17:25;9.10;;;1.63;;
21546;SDS011;41275;51.912;4.388;2023-02-24T06:22:48;8.35;;;1.52;;
21546;SDS011;41275;51.912;4.388;2023-02-24T06:28:13;8.48;;;1.23;;
21546;SDS011;41275;51.912;4.388;2023-02-24T06:33:36;6.95;;;1.60;;
21546;SDS011;41275;51.912;4.388;2023-02-24T06:38:58;10.87;;;1.67;;
21546;SDS011;41275;51.912;4.388;2023-02-24T06:44:19;7.43;;;1.80;;
21546;SDS011;41275;51.912;4.388;2023-02-24T06:49:40;10.70;;;1.90;;
21546;SDS011;41275;51.912;4.388;2023-02-24T06:55:04;6.33;;;1.37;;
21546;SDS011;41275;51.912;4.388;2023-02-24T07:00:26;12.40;;;1.83;;
21546;SDS011;41275;51.912;4.388;2023-02-24T07:05:58;8.48;;;1.38;;
21546;SDS011;41275;51.912;4.388;2023-02-24T07:11:40;9.02;;;1.63;;
21546;SDS011;41275;51.912;4.388;2023-02-24T07:17:03;11.43;;;1.60;;
21546;SDS011;41275;51.912;4.388;2023-02-24T07:22:25;7.40;;;1.40;;
21546;SDS011;41275;51.912;4.388;2023-02-24T07:27:46;7.32;;;1.58;;
21546;SDS011;41275;51.912;4.388;2023-02-24T07:33:07;7.47;;;1.50;;
21546;SDS011;41275;51.912;4.388;2023-02-24T07:38:29;11.38;;;1.98;;
21546;SDS011;41275;51.912;4.388;2023-02-24T07:43:51;8.43;;;1.92;;
21546;SDS011;41275;51.912;4.388;2023-02-24T07:49:14;13.02;;;2.03;;
21546;SDS011;41275;51.912;4.388;2023-02-24T07:54:39;10.18;;;2.10;;
21546;SDS011;41275;51.912;4.388;2023-02-24T08:00:00;13.65;;;2.20;;
21546;SDS011;41275;51.912;4.388;2023-02-24T08:05:39;10.60;;;2.00;;
21546;SDS011;41275;51.912;4.388;2023-02-24T08:11:04;9.60;;;2.10;;
21546;SDS011;41275;51.912;4.388;2023-02-24T08:16:27;10.13;;;2.42;;
21546;SDS011;41275;51.912;4.388;2023-02-24T08:21:59;8.35;;;1.85;;
21546;SDS011;41275;51.912;4.388;2023-02-24T08:27:39;10.73;;;2.40;;
21546;SDS011;41275;51.912;4.388;2023-02-24T08:33:00;9.57;;;1.90;;
21546;SDS011;41275;51.912;4.388;2023-02-24T08:38:22;10.70;;;2.07;;
21546;SDS011;41275;51.912;4.388;2023-02-24T08:43:44;11.48;;;2.13;;
21546;SDS011;41275;51.912;4.388;2023-02-24T08:49:06;9.10;;;2.00;;
21546;SDS011;41275;51.912;4.388;2023-02-24T08:54:30;14.52;;;2.30;;
21546;SDS011;41275;51.912;4.388;2023-02-24T08:59:51;11.67;;;2.40;;
21546;SDS011;41275;51.912;4.388;2023-02-24T09:05:17;8.27;;;1.90;;
21546;SDS011;41275;51.912;4.388;2023-02-24T09:10:38;9.38;;;1.70;;
21546;SDS011;41275;51.912;4.388;2023-02-24T09:16:01;8.98;;;2.08;;
21546;SDS011;41275;51.912;4.388;2023-02-24T09:21:23;6.80;;;1.88;;
21546;SDS011;41275;51.912;4.388;2023-02-24T09:27:03;14.83;;;1.90;;
21546;SDS011;41275;51.912;4.388;2023-02-24T09:32:25;8.17;;;1.83;;
21546;SDS011;41275;51.912;4.388;2023-02-24T09:37:48;10.00;;;1.95;;
21546;SDS011;41275;51.912;4.388;2023-02-24T09:43:11;7.18;;;1.83;;
21546;SDS011;41275;51.912;4.388;2023-02-24T09:48:38;13.60;;;2.40;;
21546;SDS011;41275;51.912;4.388;2023-02-24T09:54:04;7.57;;;2.15;;
21546;SDS011;41275;51.912;4.388;2023-02-24T09:59:36;10.83;;;1.90;;
21546;SDS011;41275;51.912;4.388;2023-02-24T10:10:58;11.87;;;2.00;;
21546;SDS011;41275;51.912;4.388;2023-02-24T10:16:42;9.98;;;2.72;;
21546;SDS011;41275;51.912;4.388;2023-02-24T10:22:11;7.38;;;2.55;;
21546;SDS011;41275;51.912;4.388;2023-02-24T10:28:02;8.77;;;3.35;;
21546;SDS011;41275;51.912;4.388;2023-02-24T10:33:36;8.53;;;3.47;;
21546;SDS011;41275;51.912;4.388;2023-02-24T10:39:15;10.57;;;3.73;;
21546;SDS011;41275;51.912;4.388;2023-02-24T10:44:46;8.87;;;4.20;;
21546;SDS011;41275;51.912;4.388;2023-02-24T10:51:00;12.98;;;4.53;;
21546;SDS011;41275;51.912;4.388;2023-02-24T10:56:06;9.02;;;5.10;;
21546;SDS011;41275;51.912;4.388;2023-02-24T11:01:35;11.80;;;4.88;;
21546;SDS011;41275;51.912;4.388;2023-02-24T11:07:19;11.57;;;5.57;;
21546;SDS011;41275;51.912;4.388;2023-02-24T11:13:03;10.88;;;5.38;;
21546;SDS011;41275;51.912;4.388;2023-02-24T11:18:45;11.38;;;5.88;;
21546;SDS011;41275;51.912;4.388;2023-02-24T11:24:12;9.00;;;4.88;;
21546;SDS011;41275;51.912;4.388;2023-02-24T11:35:35;12.07;;;5.15;;
21546;SDS011;41275;51.912;4.388;2023-02-24T11:41:08;8.15;;;4.63;;
21546;SDS011;41275;51.912;4.388;2023-02-24T11:46:40;7.53;;;4.60;;
21546;SDS011;41275;51.912;4.388;2023-02-24T11:52:08;10.32;;;5.35;;
21546;SDS011;41275;51.912;4.388;2023-02-24T11:57:37;10.98;;;5.85;;
21546;SDS011;41275;51.912;4.388;2023-02-24T12:08:36;16.30;;;6.60;;
21546;SDS011;41275;51.912;4.388;2023-02-24T12:14:06;16.43;;;6.60;;
21546;SDS011;41275;51.912;4.388;2023-02-24T12:20:01;17.40;;;7.47;;
21546;SDS011;41275;51.912;4.388;2023-02-24T12:25:36;21.93;;;7.23;;
21546;SDS011;41275;51.912;4.388;2023-02-24T12:31:24;24.53;;;6.30;;
21546;SDS011;41275;51.912;4.388;2023-02-24T12:42:22;20.38;;;4.53;;
21546;SDS011;41275;51.912;4.388;2023-02-24T12:47:55;19.38;;;3.55;;
21546;SDS011;41275;51.912;4.388;2023-02-24T12:53:41;17.15;;;3.70;;
21546;SDS011;41275;51.912;4.388;2023-02-24T12:59:09;22.02;;;3.65;;
21546;SDS011;41275;51.912;4.388;2023-02-24T13:04:52;22.93;;;3.27;;
21546;SDS011;41275;51.912;4.388;2023-02-24T13:10:28;17.75;;;2.65;;
21546;SDS011;41275;51.912;4.388;2023-02-24T13:16:01;18.13;;;2.67;;
21546;SDS011;41275;51.912;4.388;2023-02-24T13:21:22;19.58;;;3.13;;
21546;SDS011;41275;51.912;4.388;2023-02-24T13:26:44;18.42;;;2.67;;
21546;SDS011;41275;51.912;4.388;2023-02-24T13:32:19;21.98;;;3.42;;
21546;SDS011;41275;51.912;4.388;2023-02-24T13:37:45;24.13;;;3.35;;
21546;SDS011;41275;51.912;4.388;2023-02-24T13:43:19;20.67;;;3.13;;
21546;SDS011;41275;51.912;4.388;2023-02-24T13:54:37;20.08;;;3.28;;
21546;SDS011;41275;51.912;4.388;2023-02-24T14:00:24;12.93;;;1.97;;
21546;SDS011;41275;51.912;4.388;2023-02-24T14:05:52;16.87;;;2.50;;
21546;SDS011;41275;51.912;4.388;2023-02-24T14:11:14;12.65;;;2.53;;
21546;SDS011;41275;51.912;4.388;2023-02-24T14:16:37;13.13;;;2.50;;
21546;SDS011;41275;51.912;4.388;2023-02-24T14:21:59;18.23;;;2.27;;
21546;SDS011;41275;51.912;4.388;2023-02-24T14:27:23;11.45;;;2.08;;
21546;SDS011;41275;51.912;4.388;2023-02-24T14:32:46;11.80;;;2.00;;
21546;SDS011;41275;51.912;4.388;2023-02-24T14:38:27;17.42;;;2.28;;
21546;SDS011;41275;51.912;4.388;2023-02-24T14:43:51;14.07;;;2.15;;
21546;SDS011;41275;51.912;4.388;2023-02-24T14:49:15;10.90;;;1.77;;
21546;SDS011;41275;51.912;4.388;2023-02-24T14:54:47;13.43;;;2.10;;
21546;SDS011;41275;51.912;4.388;2023-02-24T15:00:18;11.38;;;1.80;;
21546;SDS011;41275;51.912;4.388;2023-02-24T15:05:44;10.13;;;1.33;;
21546;SDS011;41275;51.912;4.388;2023-02-24T15:21:59;9.17;;;1.63;;
21546;SDS011;41275;51.912;4.388;2023-02-24T15:27:22;7.93;;;1.33;;
21546;SDS011;41275;51.912;4.388;2023-02-24T15:32:46;11.32;;;2.17;;
21546;SDS011;41275;51.912;4.388;2023-02-24T15:38:12;11.40;;;2.05;;
21546;SDS011;41275;51.912;4.388;2023-02-24T15:49:05;12.95;;;1.98;;
21546;SDS011;41275;51.912;4.388;2023-02-24T15:54:28;9.15;;;1.35;;
21546;SDS011;41275;51.912;4.388;2023-02-24T15:59:51;9.47;;;1.30;;
21546;SDS011;41275;51.912;4.388;2023-02-24T16:05:12;9.37;;;1.10;;
21546;SDS011;41275;51.912;4.388;2023-02-24T16:10:34;7.97;;;1.42;;
21546;SDS011;41275;51.912;4.388;2023-02-24T16:15:56;8.25;;;1.92;;
21546;SDS011;41275;51.912;4.388;2023-02-24T16:21:17;7.47;;;1.30;;
21546;SDS011;41275;51.912;4.388;2023-02-24T16:26:38;11.33;;;1.83;;
21546;SDS011;41275;51.912;4.388;2023-02-24T16:32:00;6.97;;;1.33;;
21546;SDS011;41275;51.912;4.388;2023-02-24T16:37:23;8.35;;;1.20;;
21546;SDS011;41275;51.912;4.388;2023-02-24T16:42:49;7.22;;;1.35;;
21546;SDS011;41275;51.912;4.388;2023-02-24T16:48:18;6.93;;;1.20;;
21546;SDS011;41275;51.912;4.388;2023-02-24T16:53:41;6.80;;;1.60;;
21546;SDS011;41275;51.912;4.388;2023-02-24T16:59:03;7.80;;;1.40;;
21546;SDS011;41275;51.912;4.388;2023-02-24T17:04:24;12.63;;;1.50;;
21546;SDS011;41275;51.912;4.388;2023-02-24T17:09:45;10.15;;;1.35;;
21546;SDS011;41275;51.912;4.388;2023-02-24T17:15:07;13.45;;;1.75;;
21546;SDS011;41275;51.912;4.388;2023-02-24T17:20:33;10.63;;;2.08;;
21546;SDS011;41275;51.912;4.388;2023-02-24T17:25:56;14.43;;;1.88;;
21546;SDS011;41275;51.912;4.388;2023-02-24T17:31:20;14.25;;;2.30;;
21546;SDS011;41275;51.912;4.388;2023-02-24T17:36:42;11.47;;;1.50;;
21546;SDS011;41275;51.912;4.388;2023-02-24T17:42:03;12.43;;;1.60;;
21546;SDS011;41275;51.912;4.388;2023-02-24T17:47:25;12.07;;;1.70;;
21546;SDS011;41275;51.912;4.388;2023-02-24T17:52:46;11.20;;;1.90;;
21546;SDS011;41275;51.912;4.388;2023-02-24T17:58:07;10.13;;;1.53;;
21546;SDS011;41275;51.912;4.388;2023-02-24T18:03:29;10.15;;;1.52;;
21546;SDS011;41275;51.912;4.388;2023-02-24T18:08:50;8.18;;;1.20;;
21546;SDS011;41275;51.912;4.388;2023-02-24T18:14:12;10.80;;;1.52;;
21546;SDS011;41275;51.912;4.388;2023-02-24T18:19:33;10.93;;;1.50;;
21546;SDS011;41275;51.912;4.388;2023-02-24T18:24:55;10.18;;;1.70;;
21546;SDS011;41275;51.912;4.388;2023-02-24T18:30:16;6.20;;;1.48;;
21546;SDS011;41275;51.912;4.388;2023-02-24T18:35:38;12.15;;;1.88;;
21546;SDS011;41275;51.912;4.388;2023-02-24T18:41:00;11.63;;;2.00;;
21546;SDS011;41275;51.912;4.388;2023-02-24T18:46:27;11.55;;;2.05;;
21546;SDS011;41275;51.912;4.388;2023-02-24T18:51:48;11.35;;;1.88;;
21546;SDS011;41275;51.912;4.388;2023-02-24T18:57:09;8.98;;;1.55;;
21546;SDS011;41275;51.912;4.388;2023-02-24T19:02:30;15.20;;;2.70;;
21546;SDS011;41275;51.912;4.388;2023-02-24T19:07:52;16.63;;;2.73;;
21546;SDS011;41275;51.912;4.388;2023-02-24T19:13:13;17.20;;;2.73;;
21546;SDS011;41275;51.912;4.388;2023-02-24T19:18:34;19.23;;;3.03;;
21546;SDS011;41275;51.912;4.388;2023-02-24T19:24:02;14.23;;;2.58;;
21546;SDS011;41275;51.912;4.388;2023-02-24T19:29:27;17.23;;;2.63;;
21546;SDS011;41275;51.912;4.388;2023-02-24T19:34:49;17.88;;;2.50;;
21546;SDS011;41275;51.912;4.388;2023-02-24T19:40:10;13.02;;;2.13;;
21546;SDS011;41275;51.912;4.388;2023-02-24T19:45:32;11.37;;;2.33;;
21546;SDS011;41275;51.912;4.388;2023-02-24T19:50:53;10.30;;;1.83;;
21546;SDS011;41275;51.912;4.388;2023-02-24T19:56:14;21.70;;;2.70;;
21546;SDS011;41275;51.912;4.388;2023-02-24T20:01:35;17.20;;;2.33;;
21546;SDS011;41275;51.912;4.388;2023-02-24T20:06:57;16.80;;;2.97;;
21546;SDS011;41275;51.912;4.388;2023-02-24T20:12:18;15.93;;;2.70;;
21546;SDS011;41275;51.912;4.388;2023-02-24T20:17:39;14.77;;;3.00;;
21546;SDS011;41275;51.912;4.388;2023-02-24T20:23:01;20.23;;;3.05;;
21546;SDS011;41275;51.912;4.388;2023-02-24T20:28:22;18.25;;;2.67;;
21546;SDS011;41275;51.912;4.388;2023-02-24T20:33:44;18.17;;;2.60;;
21546;SDS011;41275;51.912;4.388;2023-02-24T20:39:06;13.80;;;2.73;;
21546;SDS011;41275;51.912;4.388;2023-02-24T20:44:27;20.43;;;3.03;;
21546;SDS011;41275;51.912;4.388;2023-02-24T20:49:48;11.57;;;2.40;;
21546;SDS011;41275;51.912;4.388;2023-02-24T20:55:09;11.20;;;2.03;;
21546;SDS011;41275;51.912;4.388;2023-02-24T21:00:31;9.00;;;1.90;;
21546;SDS011;41275;51.912;4.388;2023-02-24T21:05:58;14.77;;;1.73;;
21546;SDS011;41275;51.912;4.388;2023-02-24T21:11:19;10.77;;;1.70;;
21546;SDS011;41275;51.912;4.388;2023-02-24T21:16:41;8.20;;;1.55;;
21546;SDS011;41275;51.912;4.388;2023-02-24T21:22:03;8.50;;;1.80;;
21546;SDS011;41275;51.912;4.388;2023-02-24T21:27:25;8.50;;;1.70;;
21546;SDS011;41275;51.912;4.388;2023-02-24T21:32:46;9.13;;;1.70;;
21546;SDS011;41275;51.912;4.388;2023-02-24T21:38:07;8.25;;;1.90;;
21546;SDS011;41275;51.912;4.388;2023-02-24T21:43:29;8.70;;;1.60;;
21546;SDS011;41275;51.912;4.388;2023-02-24T21:48:54;9.45;;;1.77;;
21546;SDS011;41275;51.912;4.388;2023-02-24T21:54:18;11.05;;;1.80;;
21546;SDS011;41275;51.912;4.388;2023-02-24T21:59:40;10.20;;;2.22;;
21546;SDS011;41275;51.912;4.388;2023-02-24T22:05:01;9.73;;;2.08;;
21546;SDS011;41275;51.912;4.388;2023-02-24T22:10:22;13.15;;;1.80;;
21546;SDS011;41275;51.912;4.388;2023-02-24T22:15:43;8.00;;;1.38;;
21546;SDS011;41275;51.912;4.388;2023-02-24T22:21:06;13.18;;;2.00;;
21546;SDS011;41275;51.912;4.388;2023-02-24T22:26:28;12.15;;;1.75;;
21546;SDS011;41275;51.912;4.388;2023-02-24T22:31:51;8.80;;;1.67;;
21546;SDS011;41275;51.912;4.388;2023-02-24T22:37:13;11.33;;;1.90;;
21546;SDS011;41275;51.912;4.388;2023-02-24T22:42:34;13.77;;;2.03;;
21546;SDS011;41275;51.912;4.388;2023-02-24T22:47:56;10.43;;;1.20;;
21546;SDS011;41275;51.912;4.388;2023-02-24T22:53:19;7.28;;;1.48;;
21546;SDS011;41275;51.912;4.388;2023-02-24T22:58:40;7.45;;;1.33;;
21546;SDS011;41275;51.912;4.388;2023-02-24T23:04:03;9.02;;;1.27;;
21546;SDS011;41275;51.912;4.388;2023-02-24T23:09:26;7.18;;;1.27;;
21546;SDS011;41275;51.912;4.388;2023-02-24T23:14:47;8.65;;;1.20;;
21546;SDS011;41275;51.912;4.388;2023-02-24T23:20:09;9.32;;;1.35;;
21546;SDS011;41275;51.912;4.388;2023-02-24T23:25:33;8.77;;;1.80;;
21546;SDS011;41275;51.912;4.388;2023-02-24T23:30:55;12.10;;;1.87;;
21546;SDS011;41275;51.912;4.388;2023-02-24T23:36:17;13.85;;;2.20;;
21546;SDS011;41275;51.912;4.388;2023-02-24T23:41:38;11.15;;;1.80;;
21546;SDS011;41275;51.912;4.388;2023-02-24T23:47:01;13.00;;;2.10;;
21546;SDS011;41275;51.912;4.388;2023-02-24T23:52:24;13.85;;;2.47;;
21546;SDS011;41275;51.912;4.388;2023-02-24T23:57:46;17.88;;;2.45;;
